createdAt,value
2023-02-15T00:01:11.818Z,105.60
2023-02-15T00:04:22.274Z,96.00
2023-02-15T00:07:26.179Z,93.28
2023-02-15T00:10:29.714Z,112.35
2023-02-15T00:13:43.533Z,109.30
2023-02-15T00:16:46.846Z,111.80
2023-02-15T00:19:49.817Z,114.15
2023-02-15T00:22:53.513Z,104.25
2023-02-15T00:26:11.273Z,133.07
2023-02-15T00:29:19.938Z,220.95
2023-02-15T00:32:23.570Z,198.50
2023-02-15T00:35:28.320Z,129.70
2023-02-15T00:38:32.543Z,144.95
2023-02-15T00:41:36.368Z,312.73
2023-02-15T00:44:40.096Z,284.92
2023-02-15T00:47:43.064Z,335.50
2023-02-15T00:50:54.664Z,287.17
2023-02-15T00:53:57.621Z,321.73
2023-02-15T00:57:00.553Z,238.57
2023-02-15T01:00:04.845Z,248.85
2023-02-15T01:03:08.598Z,245.27
2023-02-15T01:06:13.412Z,295.58
2023-02-15T01:09:16.405Z,226.25
2023-02-15T01:12:22.098Z,215.85
2023-02-15T01:15:25.907Z,218.27
2023-02-15T01:18:30.057Z,213.85
2023-02-15T01:21:35.856Z,224.75
2023-02-15T01:24:39.964Z,240.68
2023-02-15T01:27:43.291Z,254.50
2023-02-15T01:30:49.203Z,238.38
2023-02-15T01:33:53.218Z,275.75
2023-02-15T01:36:56.073Z,277.95
2023-02-15T01:39:59.300Z,211.73
2023-02-15T01:43:02.562Z,206.98
2023-02-15T01:46:05.699Z,293.85
2023-02-15T01:49:19.637Z,281.67
2023-02-15T01:52:24.455Z,289.38
2023-02-15T01:55:32.365Z,307.15
2023-02-15T01:58:36.981Z,353.80
2023-02-15T02:01:40.641Z,311.77
2023-02-15T02:04:49.476Z,333.25
2023-02-15T02:07:59.091Z,356.75
2023-02-15T02:11:03.193Z,398.90
2023-02-15T02:14:06.608Z,350.98
2023-02-15T02:17:18.668Z,398.90
2023-02-15T02:20:49.309Z,417.58
2023-02-15T02:24:13.823Z,476.30
2023-02-15T02:27:35.421Z,510.60
2023-02-15T02:31:09.223Z,416.73
2023-02-15T02:34:36.859Z,423.13
2023-02-15T02:37:47.390Z,360.35
2023-02-15T02:40:58.854Z,315.42
2023-02-15T02:44:32.471Z,350.42
2023-02-15T02:47:50.721Z,288.63
2023-02-15T02:50:54.686Z,332.73
2023-02-15T02:54:01.934Z,284.70
2023-02-15T02:57:10.724Z,251.80
2023-02-15T03:00:17.210Z,178.38
2023-02-15T03:03:44.996Z,160.68
2023-02-15T03:11:25.400Z,119.30
2023-02-15T03:14:32.457Z,114.93
2023-02-15T03:41:27.243Z,107.97
2023-02-15T03:44:51.350Z,119.85
2023-02-15T03:48:08.140Z,100.60
2023-02-15T03:51:41.633Z,113.07
2023-02-15T03:55:04.911Z,134.77
2023-02-15T03:58:36.713Z,120.38
2023-02-15T04:02:15.507Z,122.13
2023-02-15T04:05:27.005Z,131.90
2023-02-15T04:08:55.183Z,143.00
2023-02-15T04:12:05.132Z,127.55
2023-02-15T04:15:37.104Z,86.78
2023-02-15T04:19:07.442Z,85.47
2023-02-15T04:22:35.913Z,69.85
2023-02-15T04:25:45.453Z,77.07
2023-02-15T04:28:59.299Z,69.55
2023-02-15T04:35:43.999Z,73.63
2023-02-15T04:38:55.387Z,95.72
2023-02-15T04:42:06.867Z,96.93
2023-02-15T04:45:20.408Z,79.40
2023-02-15T04:48:33.436Z,71.60
2023-02-15T04:51:42.761Z,88.28
2023-02-15T04:54:53.338Z,62.20
2023-02-15T04:58:02.679Z,80.43
2023-02-15T05:01:13.432Z,45.28
2023-02-15T05:04:23.343Z,62.00
2023-02-15T05:07:33.972Z,61.97
2023-02-15T05:10:43.414Z,47.30
2023-02-15T05:13:53.360Z,74.68
2023-02-15T05:17:04.750Z,67.90
2023-02-15T05:20:14.707Z,73.80
2023-02-15T05:23:24.661Z,68.75
2023-02-15T05:26:51.912Z,72.03
2023-02-15T05:30:03.030Z,80.60
2023-02-15T05:33:09.707Z,90.60
2023-02-15T05:36:19.329Z,78.55
2023-02-15T05:39:29.281Z,77.32
2023-02-15T05:42:41.893Z,78.47
2023-02-15T05:45:54.948Z,67.70
2023-02-15T05:49:06.303Z,68.55
2023-02-15T05:52:15.956Z,77.93
2023-02-15T05:55:39.842Z,63.97
2023-02-15T05:58:51.214Z,47.92
2023-02-15T06:02:02.438Z,60.38
2023-02-15T06:05:12.865Z,64.57
2023-02-15T06:08:24.159Z,48.22
2023-02-15T06:11:35.034Z,64.22
2023-02-15T06:14:46.115Z,56.95
2023-02-15T06:17:56.884Z,44.33
2023-02-15T06:21:09.492Z,48.33
2023-02-15T06:24:22.434Z,39.10
2023-02-15T06:27:27.054Z,33.42
2023-02-15T06:30:31.028Z,36.08
2023-02-15T06:33:40.810Z,30.27
2023-02-15T06:36:52.405Z,30.77
2023-02-15T06:40:03.896Z,33.17
2023-02-15T06:43:12.820Z,24.95
2023-02-15T06:46:21.774Z,19.83
2023-02-15T06:49:32.318Z,18.08
2023-02-15T06:52:42.499Z,21.42
2023-02-15T06:55:52.239Z,16.83
2023-02-15T06:59:03.499Z,25.83
2023-02-15T07:02:12.969Z,18.05
2023-02-15T07:05:20.950Z,18.05
2023-02-15T07:11:58.365Z,21.27
2023-02-15T07:15:09.262Z,15.90
2023-02-15T07:18:17.590Z,14.70
2023-02-15T07:21:28.741Z,20.30
2023-02-15T07:24:39.002Z,17.80
2023-02-15T07:27:47.827Z,19.08
2023-02-15T07:30:56.499Z,11.85
2023-02-15T07:34:04.070Z,17.00
2023-02-15T07:40:18.029Z,15.43
2023-02-15T07:43:24.681Z,24.63
2023-02-15T07:46:35.104Z,17.15
2023-02-15T07:49:43.076Z,16.15
2023-02-15T07:52:51.681Z,18.60
2023-02-15T07:55:59.227Z,16.45
2023-02-15T07:59:05.251Z,19.15
2023-02-15T08:02:14.066Z,19.90
2023-02-15T08:05:23.185Z,18.40
2023-02-15T08:08:36.640Z,17.73
2023-02-15T08:11:42.556Z,20.23
2023-02-15T08:14:47.542Z,18.02
2023-02-15T08:17:52.131Z,18.48
2023-02-15T08:20:57.745Z,20.27
2023-02-15T08:24:04.392Z,21.95
2023-02-15T08:27:14.445Z,15.30
2023-02-15T08:30:18.973Z,22.25
2023-02-15T08:33:28.003Z,18.50
2023-02-15T08:36:34.325Z,19.00
2023-02-15T08:39:39.730Z,23.88
2023-02-15T08:42:46.285Z,26.02
2023-02-15T08:45:51.447Z,23.40
2023-02-15T08:48:57.009Z,22.13
2023-02-15T08:52:04.895Z,28.83
2023-02-15T08:55:11.644Z,22.85
2023-02-15T08:58:18.667Z,25.40
2023-02-15T09:01:34.681Z,34.53
2023-02-15T09:04:42.557Z,32.78
2023-02-15T09:07:51.190Z,32.38
2023-02-15T09:11:11.274Z,26.05
2023-02-15T09:14:23.591Z,29.13
2023-02-15T09:17:33.460Z,32.42
2023-02-15T09:20:43.176Z,31.45
2023-02-15T09:23:53.536Z,85.80
2023-02-15T09:27:01.962Z,95.38
2023-02-15T09:30:11.381Z,61.90
2023-02-15T09:33:18.273Z,55.20
2023-02-15T09:36:39.218Z,45.90
2023-02-15T09:39:49.346Z,32.00
2023-02-15T09:43:23.802Z,29.75
2023-02-15T09:46:54.932Z,34.45
2023-02-15T09:50:21.172Z,32.47
2023-02-15T09:54:04.803Z,27.33
2023-02-15T09:57:34.831Z,34.83
2023-02-15T10:01:06.392Z,19.02
2023-02-15T10:04:49.191Z,25.00
2023-02-15T10:08:29.280Z,26.38
2023-02-15T10:12:18.651Z,24.10
2023-02-15T10:15:56.055Z,23.08
2023-02-15T10:19:26.264Z,20.33
2023-02-15T10:23:11.771Z,22.27
2023-02-15T10:26:27.452Z,19.15
2023-02-15T10:29:43.043Z,18.17
2023-02-15T10:33:14.500Z,25.90
2023-02-15T10:36:31.104Z,26.42
2023-02-15T10:39:41.687Z,16.85
2023-02-15T10:43:06.149Z,22.75
2023-02-15T10:46:35.033Z,22.75
2023-02-15T10:50:03.292Z,31.67
2023-02-15T10:53:34.628Z,82.40
2023-02-15T10:57:06.750Z,82.10
2023-02-15T11:00:33.762Z,43.20
2023-02-15T11:04:06.532Z,97.72
2023-02-15T11:07:25.487Z,139.18
2023-02-15T11:10:50.362Z,157.82
2023-02-15T11:13:59.592Z,171.18
2023-02-15T11:17:16.918Z,107.32
2023-02-15T11:20:26.265Z,121.07
2023-02-15T11:23:35.939Z,63.45
2023-02-15T11:26:50.307Z,95.00
2023-02-15T11:30:15.289Z,100.75
2023-02-15T11:33:26.960Z,123.30
2023-02-15T11:36:35.721Z,139.80
2023-02-15T11:39:45.873Z,114.00
2023-02-15T11:43:06.110Z,81.90
2023-02-15T11:52:34.924Z,85.03
2023-02-15T11:55:40.475Z,87.10
2023-02-15T11:58:49.561Z,94.85
2023-02-15T12:01:53.219Z,122.82
2023-02-15T12:05:15.412Z,98.72
2023-02-15T12:11:45.169Z,89.88
2023-02-15T12:14:51.673Z,110.45
2023-02-15T12:17:56.652Z,84.00
2023-02-15T12:21:09.490Z,114.13
2023-02-15T12:24:33.985Z,157.98
2023-02-15T12:27:38.960Z,135.40
2023-02-15T12:30:45.357Z,104.95
2023-02-15T12:33:48.801Z,108.63
2023-02-15T12:37:01.932Z,142.27
2023-02-15T12:40:33.914Z,189.90
2023-02-15T12:43:46.224Z,215.93
2023-02-15T12:47:03.162Z,189.18
2023-02-15T12:50:39.490Z,156.40
2023-02-15T12:53:45.306Z,145.23
2023-02-15T12:56:49.695Z,135.97
2023-02-15T13:00:00.081Z,153.63
2023-02-15T13:03:05.105Z,144.80
2023-02-15T13:06:10.728Z,156.55
2023-02-15T13:09:22.090Z,186.15
2023-02-15T13:12:30.004Z,141.40
2023-02-15T13:15:46.640Z,138.27
2023-02-15T13:18:54.161Z,132.98
2023-02-15T13:21:59.113Z,137.65
2023-02-15T13:25:11.749Z,112.97
2023-02-15T13:28:20.162Z,148.63
2023-02-15T13:31:30.131Z,120.88
2023-02-15T13:34:41.712Z,112.25
2023-02-15T13:38:03.452Z,116.30
2023-02-15T13:41:14.896Z,142.35
2023-02-15T13:44:52.261Z,126.80
2023-02-15T13:48:22.528Z,100.18
2023-02-15T13:51:46.896Z,97.38
2023-02-15T13:55:21.865Z,104.25
2023-02-15T13:58:51.931Z,91.35
2023-02-15T14:02:13.569Z,95.35
2023-02-15T14:05:32.593Z,80.97
2023-02-15T14:09:02.633Z,91.90
2023-02-15T14:12:27.540Z,98.03
2023-02-15T14:15:46.721Z,101.05
2023-02-15T14:19:11.334Z,67.25
2023-02-15T14:22:14.558Z,67.80
2023-02-15T14:25:37.041Z,84.20
2023-02-15T14:28:51.153Z,125.90
2023-02-15T14:31:58.145Z,127.32
2023-02-15T14:35:05.004Z,54.85
2023-02-15T14:38:11.432Z,108.20
2023-02-15T14:41:28.738Z,85.77
2023-02-15T14:44:43.949Z,80.90
2023-02-15T14:47:57.676Z,69.63
2023-02-15T14:51:02.485Z,81.07
2023-02-15T14:54:06.579Z,73.55
2023-02-15T14:57:11.970Z,78.85
2023-02-15T15:00:37.374Z,161.57
2023-02-15T15:03:55.075Z,194.50
2023-02-15T15:07:26.198Z,212.43
2023-02-15T15:10:46.106Z,107.82
2023-02-15T15:14:02.389Z,115.18
2023-02-15T15:17:09.064Z,168.73
2023-02-15T15:20:18.262Z,195.23
2023-02-15T15:23:23.701Z,143.32
2023-02-15T15:26:38.373Z,226.32
2023-02-15T15:29:42.957Z,210.68
2023-02-15T15:32:55.675Z,173.07
2023-02-15T15:36:34.732Z,166.55
2023-02-15T15:39:59.822Z,197.27
2023-02-15T15:43:33.610Z,260.80
2023-02-15T15:47:21.424Z,286.75
2023-02-15T15:50:24.732Z,269.35
2023-02-15T15:53:32.194Z,261.83
2023-02-15T15:56:38.868Z,288.65
2023-02-15T15:59:47.231Z,253.95
2023-02-15T16:02:54.919Z,153.27
2023-02-15T16:09:19.615Z,151.75
2023-02-15T16:12:23.984Z,71.28
2023-02-15T16:15:36.530Z,79.43
2023-02-15T16:18:43.886Z,64.93
2023-02-15T16:21:50.060Z,47.88
2023-02-15T16:25:48.072Z,58.85
2023-02-15T16:28:53.457Z,43.85
2023-02-15T16:32:01.422Z,41.10
2023-02-15T16:35:05.594Z,71.22
2023-02-15T16:38:12.550Z,63.05
2023-02-15T16:41:19.279Z,64.13
2023-02-15T16:44:23.006Z,60.22
2023-02-15T16:47:27.501Z,55.15
2023-02-15T16:50:38.208Z,55.00
2023-02-15T16:53:41.751Z,61.67
2023-02-15T16:56:47.761Z,51.53
2023-02-15T16:59:53.910Z,44.33
2023-02-15T17:03:01.568Z,49.03
2023-02-15T17:06:05.626Z,49.03
2023-02-15T17:09:23.903Z,58.80
2023-02-15T17:12:57.401Z,70.82
2023-02-15T17:16:01.565Z,71.45
2023-02-15T17:19:52.355Z,68.00
2023-02-15T17:22:56.571Z,89.43
2023-02-15T17:26:02.761Z,42.78
2023-02-15T17:29:36.613Z,102.72
2023-02-15T17:32:40.090Z,57.83
2023-02-15T17:35:43.545Z,69.43
2023-02-15T17:38:59.382Z,53.13
2023-02-15T17:42:02.759Z,50.60
2023-02-15T17:45:06.571Z,58.97
2023-02-15T17:48:17.372Z,69.65
2023-02-15T17:51:22.549Z,64.43
2023-02-15T17:54:44.998Z,72.80
2023-02-15T17:57:48.356Z,50.50
2023-02-15T18:01:16.404Z,56.08
2023-02-15T18:04:38.769Z,54.95
2023-02-15T18:08:00.896Z,49.90
2023-02-15T18:11:22.485Z,34.15
2023-02-15T18:14:26.262Z,50.03
2023-02-15T18:17:41.497Z,54.20
2023-02-15T18:20:45.530Z,55.42
2023-02-15T18:23:49.764Z,49.38
2023-02-15T18:26:55.205Z,62.95
2023-02-15T18:29:58.733Z,53.58
2023-02-15T18:33:03.304Z,65.95
2023-02-15T18:36:12.121Z,43.72
2023-02-15T18:39:41.653Z,29.33
2023-02-15T18:42:49.663Z,33.75
2023-02-15T18:45:54.063Z,52.83
2023-02-15T18:48:57.292Z,54.65
2023-02-15T18:52:00.748Z,48.25
2023-02-15T18:55:08.899Z,84.15
2023-02-15T18:58:20.761Z,63.42
2023-02-15T19:01:24.525Z,69.78
2023-02-15T19:04:27.816Z,67.97
2023-02-15T19:07:33.150Z,72.35
2023-02-15T19:10:37.266Z,96.68
2023-02-15T19:13:40.959Z,71.45
2023-02-15T19:16:44.742Z,84.35
2023-02-15T19:19:48.943Z,85.32
2023-02-15T19:22:54.874Z,70.95
2023-02-15T19:25:58.223Z,49.03
2023-02-15T19:29:03.648Z,64.72
2023-02-15T19:32:07.610Z,65.18
2023-02-15T19:35:32.576Z,63.45
2023-02-15T19:38:38.654Z,65.60
2023-02-15T19:41:43.332Z,79.50
2023-02-15T19:44:46.516Z,63.10
2023-02-15T19:47:52.729Z,64.47
2023-02-15T19:50:57.718Z,70.40
2023-02-15T19:54:02.277Z,81.70
2023-02-15T19:57:06.222Z,72.65
2023-02-15T20:00:26.270Z,67.97
2023-02-15T20:03:30.372Z,70.47
2023-02-15T20:06:33.779Z,98.40
2023-02-15T20:09:41.379Z,97.40
2023-02-15T20:15:48.616Z,75.30
2023-02-15T20:18:52.949Z,49.53
2023-02-15T20:21:57.655Z,93.45
2023-02-15T20:25:02.863Z,59.13
2023-02-15T20:28:07.020Z,60.72
2023-02-15T20:31:17.317Z,55.47
2023-02-15T20:34:20.377Z,58.83
2023-02-15T20:37:27.270Z,85.45
2023-02-15T20:40:33.990Z,59.55
2023-02-15T20:43:37.481Z,131.77
2023-02-15T20:46:41.459Z,19.77
2023-02-15T20:49:45.137Z,65.13
2023-02-15T20:52:49.861Z,87.70
2023-02-15T20:55:53.328Z,73.43
2023-02-15T20:58:57.350Z,62.65
2023-02-15T21:02:01.330Z,122.75
2023-02-15T21:05:07.034Z,47.63
2023-02-15T21:08:16.286Z,79.60
2023-02-15T21:11:24.647Z,65.10
2023-02-15T21:14:29.964Z,58.42
2023-02-15T21:17:34.322Z,76.95
2023-02-15T21:20:40.205Z,108.13
2023-02-15T21:23:45.469Z,52.47
2023-02-15T21:26:49.272Z,97.93
2023-02-15T21:29:52.856Z,63.50
2023-02-15T21:32:56.813Z,71.75
2023-02-15T21:36:01.027Z,74.93
2023-02-15T21:39:04.577Z,71.95
2023-02-15T21:42:30.014Z,80.63
2023-02-15T21:45:52.264Z,72.53
2023-02-15T21:48:55.538Z,91.85
2023-02-15T21:52:14.062Z,117.80
2023-02-15T21:55:18.350Z,93.78
2023-02-15T21:58:26.648Z,78.55
2023-02-15T22:01:30.689Z,87.22
2023-02-15T22:04:34.106Z,68.45
2023-02-15T22:07:37.513Z,54.65
2023-02-15T22:10:41.487Z,65.60
2023-02-15T22:13:45.889Z,57.63
2023-02-15T22:16:49.790Z,56.22
2023-02-15T22:19:54.034Z,49.17
2023-02-15T22:22:58.005Z,45.42
2023-02-15T22:26:08.716Z,38.88
2023-02-15T22:29:19.409Z,69.53
2023-02-15T22:32:25.714Z,50.47
2023-02-15T22:35:33.640Z,73.32
2023-02-15T22:38:38.037Z,44.60
2023-02-15T22:41:42.907Z,27.15
2023-02-15T22:44:47.760Z,51.53
2023-02-15T22:47:56.925Z,58.92
2023-02-15T22:51:06.523Z,39.28
2023-02-15T22:54:12.294Z,45.70
2023-02-15T22:57:28.256Z,58.75
2023-02-15T23:00:41.179Z,49.92
2023-02-15T23:03:46.113Z,63.30
2023-02-15T23:06:49.664Z,70.82
2023-02-15T23:09:58.874Z,55.95
2023-02-15T23:13:26.099Z,52.28
2023-02-15T23:16:34.417Z,39.95
2023-02-15T23:19:41.540Z,52.28
2023-02-15T23:22:47.296Z,47.65
2023-02-15T23:25:52.847Z,61.45
2023-02-15T23:29:01.704Z,59.67
2023-02-15T23:32:14.658Z,64.22
2023-02-15T23:35:21.277Z,63.72
2023-02-15T23:38:31.293Z,43.17
2023-02-15T23:41:39.959Z,40.05
2023-02-15T23:44:47.875Z,40.70
2023-02-15T23:48:12.345Z,48.05
2023-02-15T23:51:17.187Z,37.92
2023-02-15T23:54:26.244Z,39.67
2023-02-15T23:57:32.090Z,56.35
